createdAt,value
2019-03-30T00:00:31.196Z,15.13
2019-03-30T00:03:05.645Z,17.13
2019-03-30T00:05:40.095Z,17.00
2019-03-30T00:08:14.575Z,17.20
2019-03-30T00:10:48.962Z,17.70
2019-03-30T00:13:23.669Z,15.90
2019-03-30T00:15:58.252Z,16.27
2019-03-30T00:18:33.070Z,16.43
2019-03-30T00:21:07.495Z,17.40
2019-03-30T00:23:41.973Z,16.43
2019-03-30T00:26:16.433Z,16.60
2019-03-30T00:28:50.842Z,15.20
2019-03-30T00:31:25.268Z,16.17
2019-03-30T00:33:59.671Z,18.00
2019-03-30T00:36:35.320Z,15.63
2019-03-30T00:39:10.545Z,14.90
2019-03-30T00:41:44.883Z,15.70
2019-03-30T00:44:19.363Z,16.50
2019-03-30T00:46:53.735Z,16.00
2019-03-30T00:49:28.156Z,16.17
2019-03-30T00:52:02.530Z,16.90
2019-03-30T00:54:36.921Z,15.60
2019-03-30T00:57:11.294Z,15.57
2019-03-30T00:59:45.687Z,15.37
2019-03-30T01:02:22.636Z,16.97
2019-03-30T01:04:57.818Z,16.93
2019-03-30T01:07:32.254Z,14.63
2019-03-30T01:10:07.188Z,16.43
2019-03-30T01:12:41.690Z,17.27
2019-03-30T01:15:16.848Z,16.50
2019-03-30T01:17:51.254Z,16.07
2019-03-30T01:20:25.711Z,16.37
2019-03-30T01:23:00.101Z,18.20
2019-03-30T01:25:34.916Z,16.20
2019-03-30T01:28:09.327Z,15.83
2019-03-30T01:30:44.041Z,16.70
2019-03-30T01:33:18.446Z,17.10
2019-03-30T01:35:52.789Z,15.90
2019-03-30T01:38:27.475Z,17.53
2019-03-30T01:41:01.825Z,17.07
2019-03-30T01:43:36.242Z,16.73
2019-03-30T01:46:10.651Z,17.17
2019-03-30T01:48:45.084Z,17.20
2019-03-30T01:51:19.509Z,18.67
2019-03-30T01:53:53.907Z,17.93
2019-03-30T01:56:30.257Z,20.03
2019-03-30T01:59:04.741Z,19.57
2019-03-30T02:01:39.387Z,19.07
2019-03-30T02:04:13.778Z,19.30
2019-03-30T02:06:48.113Z,19.50
2019-03-30T02:09:25.649Z,21.57
2019-03-30T02:12:00.605Z,20.03
2019-03-30T02:14:37.299Z,21.33
2019-03-30T02:17:11.664Z,22.33
2019-03-30T02:19:46.213Z,21.10
2019-03-30T02:22:20.729Z,21.27
2019-03-30T02:24:57.300Z,20.70
2019-03-30T02:27:31.660Z,20.93
2019-03-30T02:30:07.627Z,19.77
2019-03-30T02:32:43.556Z,20.80
2019-03-30T02:35:18.160Z,21.33
2019-03-30T02:37:52.589Z,20.83
2019-03-30T02:40:27.108Z,19.97
2019-03-30T02:43:02.184Z,18.97
2019-03-30T02:45:36.796Z,19.83
2019-03-30T02:48:11.169Z,19.40
2019-03-30T02:50:49.778Z,18.87
2019-03-30T02:53:21.821Z,20.30
2019-03-30T02:55:56.605Z,19.23
2019-03-30T02:58:31.029Z,18.30
2019-03-30T03:01:05.539Z,18.90
2019-03-30T03:03:42.022Z,19.97
2019-03-30T03:06:16.423Z,22.07
2019-03-30T03:08:50.953Z,21.10
2019-03-30T03:11:25.536Z,21.73
2019-03-30T03:13:59.953Z,19.93
2019-03-30T03:16:34.646Z,20.30
2019-03-30T03:19:09.072Z,20.33
2019-03-30T03:21:43.528Z,19.17
2019-03-30T03:24:17.972Z,20.77
2019-03-30T03:26:52.332Z,20.77
2019-03-30T03:29:26.731Z,21.47
2019-03-30T03:32:01.205Z,20.40
2019-03-30T03:34:35.634Z,21.27
2019-03-30T03:37:10.064Z,20.20
2019-03-30T03:39:44.490Z,18.20
2019-03-30T03:42:19.444Z,20.43
2019-03-30T03:44:53.875Z,17.83
2019-03-30T03:47:28.388Z,19.80
2019-03-30T03:50:02.778Z,20.23
2019-03-30T03:52:37.937Z,20.63
2019-03-30T03:55:12.403Z,19.93
2019-03-30T03:57:47.404Z,20.20
2019-03-30T04:00:21.849Z,20.87
2019-03-30T04:02:59.639Z,19.43
2019-03-30T04:05:37.402Z,19.27
2019-03-30T04:08:14.438Z,20.00
2019-03-30T04:10:51.863Z,20.10
2019-03-30T04:13:30.836Z,18.73
2019-03-30T04:16:05.839Z,20.57
2019-03-30T04:18:40.239Z,18.60
2019-03-30T04:21:14.693Z,20.13
2019-03-30T04:23:49.175Z,19.00
2019-03-30T04:26:23.543Z,19.47
2019-03-30T04:28:58.094Z,21.33
2019-03-30T04:31:32.531Z,19.40
2019-03-30T04:34:07.140Z,20.30
2019-03-30T04:36:41.608Z,19.37
2019-03-30T04:39:16.002Z,18.27
2019-03-30T04:41:50.745Z,18.70
2019-03-30T04:44:25.102Z,19.10
2019-03-30T04:46:59.549Z,19.30
2019-03-30T04:49:33.997Z,18.93
2019-03-30T04:52:08.373Z,17.67
2019-03-30T04:54:42.756Z,17.87
2019-03-30T04:57:17.092Z,18.57
2019-03-30T04:59:51.521Z,18.73
2019-03-30T05:02:25.880Z,19.27
2019-03-30T05:05:00.499Z,17.80
2019-03-30T05:07:34.886Z,17.73
2019-03-30T05:10:10.250Z,18.50
2019-03-30T05:12:44.614Z,18.10
2019-03-30T05:15:19.164Z,17.23
2019-03-30T05:17:53.878Z,18.13
2019-03-30T05:20:28.234Z,18.10
2019-03-30T05:23:02.706Z,17.47
2019-03-30T05:25:37.132Z,17.50
2019-03-30T05:28:11.896Z,18.30
2019-03-30T05:30:46.279Z,17.90
2019-03-30T05:33:20.691Z,16.50
2019-03-30T05:35:55.355Z,16.70
2019-03-30T05:38:29.769Z,16.20
2019-03-30T05:41:04.525Z,15.87
2019-03-30T05:43:38.906Z,14.40
2019-03-30T05:46:13.402Z,14.53
2019-03-30T05:48:47.751Z,14.93
2019-03-30T05:51:22.179Z,14.90
2019-03-30T05:53:56.587Z,13.67
2019-03-30T05:56:31.035Z,14.90
2019-03-30T05:59:05.460Z,14.90
2019-03-30T06:01:39.831Z,15.00
2019-03-30T06:04:14.245Z,14.17
2019-03-30T06:06:48.588Z,13.80
2019-03-30T06:09:23.010Z,15.33
2019-03-30T06:11:57.384Z,14.37
2019-03-30T06:14:31.851Z,14.50
2019-03-30T06:17:06.323Z,13.17
2019-03-30T06:19:40.711Z,14.30
2019-03-30T06:22:15.102Z,14.20
2019-03-30T06:24:49.692Z,13.77
2019-03-30T06:27:24.672Z,14.80
2019-03-30T06:30:23.428Z,12.90
2019-03-30T06:33:00.029Z,13.67
2019-03-30T06:35:36.034Z,13.57
2019-03-30T06:38:10.403Z,14.10
2019-03-30T06:40:44.906Z,13.90
2019-03-30T06:43:19.283Z,13.60
2019-03-30T06:45:53.697Z,14.43
2019-03-30T06:48:28.082Z,14.47
2019-03-30T06:51:03.021Z,14.93
2019-03-30T06:53:37.702Z,15.70
2019-03-30T06:56:13.969Z,16.40
2019-03-30T06:58:50.078Z,16.43
2019-03-30T07:01:24.761Z,16.50
2019-03-30T07:04:00.710Z,17.50
2019-03-30T07:06:36.074Z,17.10
2019-03-30T07:09:10.788Z,19.00
2019-03-30T07:11:48.889Z,16.67
2019-03-30T07:14:27.789Z,17.77
2019-03-30T07:17:05.798Z,17.33
2019-03-30T07:19:45.345Z,18.43
2019-03-30T07:22:21.394Z,18.27
2019-03-30T07:24:55.933Z,16.70
2019-03-30T07:27:31.040Z,19.07
2019-03-30T07:30:05.890Z,18.40
2019-03-30T07:32:43.298Z,17.23
2019-03-30T07:35:20.093Z,17.90
2019-03-30T07:37:54.987Z,16.77
2019-03-30T07:40:33.837Z,17.97
2019-03-30T07:43:07.835Z,16.70
2019-03-30T07:45:42.500Z,18.00
2019-03-30T07:48:19.843Z,17.40
2019-03-30T07:50:54.485Z,17.67
2019-03-30T07:53:28.925Z,17.30
2019-03-30T07:56:08.562Z,16.67
2019-03-30T07:58:41.029Z,15.97
2019-03-30T08:01:18.373Z,17.03
2019-03-30T08:03:55.717Z,18.00
2019-03-30T08:06:30.331Z,17.27
2019-03-30T08:09:06.226Z,16.80
2019-03-30T08:11:41.149Z,16.23
2019-03-30T08:14:15.746Z,16.07
2019-03-30T08:16:50.507Z,16.77
2019-03-30T08:19:25.102Z,17.30
2019-03-30T08:22:00.349Z,16.83
2019-03-30T08:24:36.755Z,17.13
2019-03-30T08:27:13.922Z,16.77
2019-03-30T08:29:49.827Z,15.03
2019-03-30T08:32:24.671Z,16.60
2019-03-30T08:34:59.224Z,15.10
2019-03-30T08:37:32.245Z,15.37
2019-03-30T08:40:07.438Z,15.50
2019-03-30T08:42:41.943Z,15.63
2019-03-30T08:45:16.454Z,15.03
2019-03-30T08:47:52.244Z,15.70
2019-03-30T08:50:26.695Z,15.40
2019-03-30T08:53:01.447Z,15.50
2019-03-30T08:55:36.230Z,16.23
2019-03-30T08:58:15.663Z,16.57
2019-03-30T09:00:50.222Z,15.90
2019-03-30T09:03:26.196Z,15.70
2019-03-30T09:06:00.664Z,16.27
2019-03-30T09:08:35.217Z,14.90
2019-03-30T09:11:12.779Z,16.30
2019-03-30T09:13:48.883Z,15.80
2019-03-30T09:16:23.504Z,16.10
2019-03-30T09:18:59.937Z,16.57
2019-03-30T09:21:35.895Z,15.90
2019-03-30T09:24:10.614Z,16.90
2019-03-30T09:26:45.145Z,16.43
2019-03-30T09:29:21.489Z,16.40
2019-03-30T09:31:56.462Z,16.77
2019-03-30T09:34:32.859Z,15.60
2019-03-30T09:37:09.179Z,16.80
2019-03-30T09:39:45.392Z,16.43
2019-03-30T09:42:20.120Z,15.70
2019-03-30T09:44:54.945Z,16.37
2019-03-30T09:47:29.463Z,17.80
2019-03-30T09:50:04.052Z,16.70
2019-03-30T09:52:39.184Z,16.73
2019-03-30T09:55:15.868Z,16.43
2019-03-30T09:57:51.461Z,16.50
2019-03-30T10:00:26.405Z,16.37
2019-03-30T10:03:01.210Z,15.30
2019-03-30T10:05:36.415Z,15.30
2019-03-30T10:08:11.252Z,15.47
2019-03-30T10:10:45.730Z,15.77
2019-03-30T10:13:22.036Z,14.80
2019-03-30T10:15:57.004Z,13.97
2019-03-30T10:18:32.105Z,14.70
2019-03-30T10:21:08.603Z,16.60
2019-03-30T10:23:43.203Z,16.80
2019-03-30T10:26:19.572Z,16.27
2019-03-30T10:28:55.022Z,15.63
2019-03-30T10:31:32.072Z,14.30
2019-03-30T10:34:08.468Z,16.73
2019-03-30T10:36:42.974Z,13.80
2019-03-30T10:39:18.517Z,14.53
2019-03-30T10:41:53.162Z,15.47
2019-03-30T10:44:27.693Z,14.30
2019-03-30T10:47:03.959Z,14.10
2019-03-30T10:49:38.575Z,13.47
2019-03-30T10:52:13.149Z,14.60
2019-03-30T10:54:53.015Z,14.50
2019-03-30T10:57:25.953Z,14.00
2019-03-30T11:00:00.410Z,13.93
2019-03-30T11:02:37.067Z,12.63
2019-03-30T11:05:11.652Z,14.40
2019-03-30T11:07:47.723Z,12.83
2019-03-30T11:10:22.128Z,13.50
2019-03-30T11:12:57.018Z,12.30
2019-03-30T11:15:34.172Z,12.33
2019-03-30T11:18:07.655Z,11.70
2019-03-30T11:20:42.547Z,11.33
2019-03-30T11:23:17.242Z,11.00
2019-03-30T11:25:53.178Z,12.80
2019-03-30T11:28:27.635Z,10.20
2019-03-30T11:31:05.492Z,10.13
2019-03-30T11:33:42.589Z,10.03
2019-03-30T11:36:18.780Z,10.53
2019-03-30T11:38:53.412Z,10.47
2019-03-30T11:41:28.199Z,10.00
2019-03-30T11:44:02.961Z,12.00
2019-03-30T11:46:37.643Z,11.17
2019-03-30T11:49:12.207Z,12.23
2019-03-30T11:51:46.812Z,12.03
2019-03-30T11:54:21.689Z,12.87
2019-03-30T11:56:58.280Z,12.60
2019-03-30T11:59:33.356Z,12.07
2019-03-30T12:02:07.760Z,11.47
2019-03-30T12:04:42.388Z,11.60
2019-03-30T12:07:17.336Z,11.40
2019-03-30T12:09:52.163Z,10.67
2019-03-30T12:12:27.308Z,10.20
2019-03-30T12:15:01.867Z,10.60
2019-03-30T12:17:36.518Z,10.50
2019-03-30T12:20:11.653Z,10.93
2019-03-30T12:22:46.958Z,9.00
2019-03-30T12:25:34.875Z,9.77
2019-03-30T12:27:58.589Z,10.33
2019-03-30T12:30:34.858Z,11.30
2019-03-30T12:33:11.396Z,10.90
2019-03-30T12:35:46.320Z,10.20
2019-03-30T12:38:20.880Z,9.97
2019-03-30T12:40:55.669Z,10.13
2019-03-30T12:43:30.401Z,9.80
2019-03-30T12:46:06.458Z,8.93
2019-03-30T12:48:42.923Z,10.53
2019-03-30T12:51:17.475Z,9.47
2019-03-30T12:53:52.019Z,10.50
2019-03-30T12:56:26.598Z,10.80
2019-03-30T12:59:01.172Z,10.50
2019-03-30T13:01:37.171Z,10.07
2019-03-30T13:04:11.705Z,10.60
2019-03-30T13:06:46.343Z,9.60
2019-03-30T13:09:20.925Z,10.23
2019-03-30T13:11:57.224Z,10.20
2019-03-30T13:14:31.810Z,8.90
2019-03-30T13:17:06.782Z,9.40
2019-03-30T13:19:41.394Z,10.20
2019-03-30T13:22:15.776Z,9.00
2019-03-30T13:24:52.652Z,8.50
2019-03-30T13:27:27.080Z,8.43
2019-03-30T13:30:01.653Z,8.37
2019-03-30T13:32:36.079Z,8.90
2019-03-30T13:35:10.590Z,9.30
2019-03-30T13:37:45.025Z,9.60
2019-03-30T13:40:19.523Z,8.70
2019-03-30T13:42:53.878Z,9.23
2019-03-30T13:45:28.300Z,9.80
2019-03-30T13:48:03.110Z,8.60
2019-03-30T13:50:38.056Z,9.77
2019-03-30T13:53:12.514Z,8.30
2019-03-30T13:55:48.806Z,10.90
2019-03-30T13:59:01.172Z,9.03
2019-03-30T14:01:37.181Z,8.50
2019-03-30T14:04:11.604Z,8.77
2019-03-30T14:06:46.246Z,8.27
2019-03-30T14:09:22.138Z,7.63
2019-03-30T14:11:56.665Z,9.70
2019-03-30T14:14:31.111Z,9.87
2019-03-30T14:17:05.906Z,9.33
2019-03-30T14:19:42.193Z,9.83
2019-03-30T14:22:18.189Z,9.63
2019-03-30T14:24:52.742Z,9.10
2019-03-30T14:27:27.249Z,9.43
2019-03-30T14:30:01.970Z,9.40
2019-03-30T14:32:36.609Z,9.53
2019-03-30T14:35:12.724Z,9.70
2019-03-30T14:37:47.369Z,10.10
2019-03-30T14:40:21.979Z,9.53
2019-03-30T14:42:57.084Z,9.97
2019-03-30T14:45:31.620Z,9.60
2019-03-30T14:48:07.735Z,10.23
2019-03-30T14:50:42.170Z,10.00
2019-03-30T14:53:16.986Z,9.87
2019-03-30T14:55:51.614Z,9.70
2019-03-30T14:58:26.056Z,10.03
2019-03-30T15:01:03.210Z,9.30
2019-03-30T15:03:37.453Z,9.80
2019-03-30T15:06:11.981Z,9.33
2019-03-30T15:08:46.636Z,10.80
2019-03-30T15:11:22.219Z,10.70
2019-03-30T15:13:56.719Z,9.60
2019-03-30T15:16:31.313Z,9.30
2019-03-30T15:19:06.399Z,9.20
2019-03-30T15:21:42.675Z,10.10
2019-03-30T15:24:17.425Z,9.33
2019-03-30T15:26:59.759Z,9.13
2019-03-30T15:29:28.468Z,10.00
2019-03-30T15:32:03.376Z,9.00
2019-03-30T15:34:41.372Z,9.17
2019-03-30T15:37:16.076Z,10.00
2019-03-30T15:39:50.653Z,8.40
2019-03-30T15:42:27.071Z,9.60
2019-03-30T15:45:01.748Z,9.77
2019-03-30T15:47:36.965Z,9.30
2019-03-30T15:50:12.959Z,9.40
2019-03-30T15:52:49.664Z,10.40
2019-03-30T15:55:25.541Z,10.40
2019-03-30T15:58:00.257Z,10.60
2019-03-30T16:00:35.099Z,10.27
2019-03-30T16:03:09.750Z,9.50
2019-03-30T16:05:45.807Z,11.07
2019-03-30T16:08:20.277Z,9.93
2019-03-30T16:10:55.334Z,9.50
2019-03-30T16:13:31.605Z,10.03
2019-03-30T16:16:06.734Z,9.53
2019-03-30T16:18:43.038Z,10.27
2019-03-30T16:21:20.080Z,8.80
2019-03-30T16:23:55.124Z,9.53
2019-03-30T16:26:41.406Z,9.90
2019-03-30T16:29:08.463Z,9.60
2019-03-30T16:31:43.026Z,9.80
2019-03-30T16:34:19.478Z,9.50
2019-03-30T16:36:56.132Z,9.47
2019-03-30T16:39:34.819Z,10.13
2019-03-30T16:42:09.684Z,9.73
2019-03-30T16:44:44.255Z,9.93
2019-03-30T16:47:19.042Z,9.20
2019-03-30T16:49:55.435Z,10.43
2019-03-30T16:52:31.668Z,11.20
2019-03-30T16:55:08.041Z,11.60
2019-03-30T16:57:44.092Z,11.40
2019-03-30T17:00:21.015Z,10.67
2019-03-30T17:02:57.396Z,11.80
2019-03-30T17:05:31.963Z,12.60
2019-03-30T17:08:08.124Z,11.37
2019-03-30T17:10:42.659Z,11.47
2019-03-30T17:13:17.317Z,10.77
2019-03-30T17:15:51.970Z,12.27
2019-03-30T17:18:26.481Z,12.10
2019-03-30T17:21:01.162Z,11.53
2019-03-30T17:23:37.484Z,12.13
2019-03-30T17:26:12.337Z,11.70
2019-03-30T17:28:47.064Z,12.23
2019-03-30T17:31:21.687Z,11.67
2019-03-30T17:33:56.058Z,12.03
2019-03-30T17:36:30.647Z,13.20
2019-03-30T17:39:09.178Z,11.37
2019-03-30T17:41:45.120Z,12.87
2019-03-30T17:44:19.582Z,12.20
2019-03-30T17:46:54.539Z,12.20
2019-03-30T17:49:29.233Z,13.10
2019-03-30T17:52:03.899Z,13.43
2019-03-30T17:54:40.014Z,13.57
2019-03-30T17:57:17.449Z,13.20
2019-03-30T17:59:53.257Z,13.10
2019-03-30T18:02:28.056Z,13.13
2019-03-30T18:05:02.597Z,13.10
2019-03-30T18:07:37.231Z,13.03
2019-03-30T18:10:13.630Z,14.30
2019-03-30T18:12:49.939Z,12.13
2019-03-30T18:15:24.542Z,14.40
2019-03-30T18:18:00.656Z,14.10
2019-03-30T18:20:35.381Z,13.00
2019-03-30T18:23:10.032Z,15.43
2019-03-30T18:25:46.290Z,14.70
2019-03-30T18:28:26.940Z,14.30
2019-03-30T18:30:59.199Z,15.53
2019-03-30T18:33:34.348Z,16.07
2019-03-30T18:36:10.401Z,15.00
2019-03-30T18:38:49.385Z,12.63
2019-03-30T18:41:23.991Z,14.43
2019-03-30T18:44:02.232Z,12.53
2019-03-30T18:46:39.561Z,12.57
2019-03-30T18:49:14.070Z,12.90
2019-03-30T18:51:50.422Z,12.93
2019-03-30T18:54:27.510Z,13.03
2019-03-30T18:57:02.713Z,13.60
2019-03-30T18:59:37.294Z,13.80
2019-03-30T19:02:12.080Z,14.63
2019-03-30T19:04:48.651Z,13.17
2019-03-30T19:07:23.248Z,13.03
2019-03-30T19:09:59.108Z,12.30
2019-03-30T19:12:34.932Z,12.07
2019-03-30T19:15:10.877Z,12.40
2019-03-30T19:17:46.192Z,12.87
2019-03-30T19:20:22.531Z,13.70
2019-03-30T19:22:57.941Z,12.43
2019-03-30T19:25:32.571Z,12.40
2019-03-30T19:28:09.134Z,14.03
2019-03-30T19:30:44.887Z,13.80
2019-03-30T19:34:10.556Z,14.63
2019-03-30T19:36:46.942Z,14.50
2019-03-30T19:39:23.508Z,14.97
2019-03-30T19:41:58.351Z,13.13
2019-03-30T19:44:34.044Z,14.30
2019-03-30T19:47:09.940Z,15.00
2019-03-30T19:49:45.107Z,14.00
2019-03-30T19:52:20.974Z,14.53
2019-03-30T19:54:55.508Z,16.20
2019-03-30T19:57:30.308Z,16.10
2019-03-30T20:00:10.221Z,17.20
2019-03-30T20:02:44.979Z,15.60
2019-03-30T20:05:22.767Z,16.87
2019-03-30T20:08:11.223Z,14.87
2019-03-30T20:10:35.340Z,16.37
2019-03-30T20:13:10.162Z,15.50
2019-03-30T20:15:45.155Z,14.93
2019-03-30T20:18:21.139Z,14.27
2019-03-30T20:20:55.858Z,14.60
2019-03-30T20:23:30.366Z,16.13
2019-03-30T20:26:05.126Z,15.90
2019-03-30T20:28:45.778Z,15.60
2019-03-30T20:31:22.351Z,15.30
2019-03-30T20:33:57.026Z,16.40
2019-03-30T20:36:34.995Z,15.83
2019-03-30T20:39:10.262Z,17.67
2019-03-30T20:41:45.367Z,16.27
2019-03-30T20:44:20.434Z,14.40
2019-03-30T20:46:55.026Z,15.07
2019-03-30T20:49:29.967Z,15.23
2019-03-30T20:52:04.469Z,14.03
2019-03-30T20:54:39.606Z,13.90
2019-03-30T20:57:16.294Z,14.00
2019-03-30T20:59:52.684Z,14.37
2019-03-30T21:02:28.253Z,14.57
2019-03-30T21:05:04.875Z,16.57
2019-03-30T21:07:41.745Z,15.70
2019-03-30T21:10:16.465Z,17.07
2019-03-30T21:12:51.350Z,17.20
2019-03-30T21:15:26.417Z,17.77
2019-03-30T21:18:02.309Z,18.43
2019-03-30T21:20:37.152Z,18.90
2019-03-30T21:23:12.159Z,18.63
2019-03-30T21:25:47.008Z,19.33
2019-03-30T21:28:23.109Z,22.23
2019-03-30T21:30:59.331Z,22.77
2019-03-30T21:33:34.298Z,20.33
2019-03-30T21:36:09.199Z,18.83
2019-03-30T21:38:45.284Z,17.70
2019-03-30T21:41:21.365Z,18.43
2019-03-30T21:43:58.304Z,17.97
2019-03-30T21:46:34.026Z,17.10
2019-03-30T21:49:08.624Z,17.40
2019-03-30T21:51:43.405Z,18.27
2019-03-30T21:54:17.940Z,19.10
2019-03-30T21:56:54.396Z,18.47
2019-03-30T21:59:29.977Z,17.70
2019-03-30T22:02:04.471Z,19.20
2019-03-30T22:04:39.144Z,18.00
2019-03-30T22:07:13.878Z,18.53
2019-03-30T22:09:48.684Z,19.10
2019-03-30T22:12:38.940Z,19.43
2019-03-30T22:15:16.582Z,20.67
2019-03-30T22:17:50.998Z,20.30
2019-03-30T22:20:27.762Z,21.27
2019-03-30T22:23:04.252Z,20.93
2019-03-30T22:25:38.756Z,22.83
2019-03-30T22:28:13.247Z,23.30
2019-03-30T22:30:49.208Z,26.40
2019-03-30T22:33:24.196Z,24.43
2019-03-30T22:35:58.972Z,28.30
2019-03-30T22:38:33.608Z,29.10
2019-03-30T22:41:09.701Z,29.70
2019-03-30T22:43:44.430Z,31.10
2019-03-30T22:46:18.908Z,31.60
2019-03-30T22:48:53.537Z,30.70
2019-03-30T22:51:27.946Z,32.60
2019-03-30T22:54:03.918Z,32.63
2019-03-30T22:56:38.400Z,33.60
2019-03-30T22:59:12.794Z,33.20
2019-03-30T23:01:47.333Z,35.10
2019-03-30T23:04:22.311Z,35.50
2019-03-30T23:06:56.861Z,37.07
2019-03-30T23:09:31.252Z,36.33
2019-03-30T23:12:05.787Z,35.70
2019-03-30T23:14:40.939Z,35.07
2019-03-30T23:17:16.071Z,36.57
2019-03-30T23:19:50.699Z,38.50
2019-03-30T23:22:25.324Z,37.83
2019-03-30T23:25:01.083Z,37.70
2019-03-30T23:27:35.762Z,35.20
2019-03-30T23:30:11.874Z,36.03
2019-03-30T23:32:46.645Z,37.50
2019-03-30T23:35:21.125Z,37.73
2019-03-30T23:37:55.759Z,36.80
2019-03-30T23:40:30.163Z,36.70
2019-03-30T23:43:04.543Z,38.63
2019-03-30T23:45:39.327Z,39.10
2019-03-30T23:48:15.254Z,39.47
2019-03-30T23:50:49.733Z,39.00
2019-03-30T23:53:24.276Z,37.60
2019-03-30T23:55:59.185Z,39.40
2019-03-30T23:58:33.778Z,38.93
